VTUU/UBP METAR and TAF weather

Enter ICAO airport designator
Station Type Date Time Source
VTUU METAR 2019/02/21 00:00 UTC NOAA

VTUU 210000Z 00000KT 4000 BR NSC 24/21 Q1015 BECMG TL0100 5000 BR


Station Type Date Time Source
VTUU Decoded METAR 2019/02/21 00:00 UTC NOAA

Ubon Ratchathani, Thailand (VTUU) 15-15N 104-52E 127M
Feb 20, 2019 - 07:00 PM EST / 2019.02.21 0000 UTC
Wind: Calm:0
Visibility: 2 mile(s):0
Weather: mist
Temperature: 75 F (24 C)
Dew Point: 69 F (21 C)
Relative Humidity: 83%
Pressure (altimeter): 29.97 in. Hg (1015 hPa)
ob: VTUU 210000Z 00000KT 4000 BR NSC 24/21 Q1015 BECMG TL0100 5000 BR
cycle: 0

Station Type Date Time Source
VTUU TAF 2019/02/20 18:38 UTC NOAA

TAF VTUU 201700Z 2018/2118 20004KT 6000 NSC
BECMG 2021/2023 5000 BR
BECMG 2100/2102 7000 NSW


Example: see airport list